createdAt,value
2023-02-11T00:00:14.537Z,36.85
2023-02-11T00:01:22.937Z,34.13
2023-02-11T00:02:27.926Z,39.92
2023-02-11T00:03:29.685Z,35.00
2023-02-11T00:04:31.964Z,35.25
2023-02-11T00:05:34.353Z,33.20
2023-02-11T00:06:36.483Z,32.88
2023-02-11T00:07:38.556Z,32.85
2023-02-11T00:08:40.391Z,33.33
2023-02-11T00:09:42.090Z,33.40
2023-02-11T00:10:46.496Z,35.53
2023-02-11T00:11:48.239Z,29.13
2023-02-11T00:12:49.974Z,35.50
2023-02-11T00:13:52.276Z,39.10
2023-02-11T00:14:53.940Z,37.28
2023-02-11T00:15:56.100Z,37.17
2023-02-11T00:16:57.846Z,34.03
2023-02-11T00:17:59.737Z,32.65
2023-02-11T00:19:02.361Z,32.10
2023-02-11T00:20:06.048Z,33.13
2023-02-11T00:21:14.850Z,33.80
2023-02-11T00:22:16.567Z,38.38
2023-02-11T00:23:18.342Z,35.10
2023-02-11T00:24:20.165Z,30.05
2023-02-11T00:25:21.868Z,33.42
2023-02-11T00:26:26.816Z,33.25
2023-02-11T00:27:28.866Z,28.45
2023-02-11T00:28:30.558Z,33.50
2023-02-11T00:29:32.369Z,33.00
2023-02-11T00:30:34.504Z,36.42
2023-02-11T00:31:36.582Z,32.03
2023-02-11T00:32:42.638Z,33.28
2023-02-11T00:33:44.989Z,32.85
2023-02-11T00:34:47.853Z,32.22
2023-02-11T00:35:50.076Z,31.48
2023-02-11T00:36:53.788Z,29.17
2023-02-11T00:37:55.901Z,33.05
2023-02-11T00:38:58.307Z,28.15
2023-02-11T00:39:59.951Z,29.48
2023-02-11T00:41:02.229Z,30.40
2023-02-11T00:42:04.450Z,33.28
2023-02-11T00:43:06.218Z,26.38
2023-02-11T00:44:07.950Z,28.52
2023-02-11T00:45:10.243Z,30.35
2023-02-11T00:46:12.535Z,32.47
2023-02-11T00:47:14.258Z,33.17
2023-02-11T00:48:18.932Z,30.70
2023-02-11T00:49:20.778Z,31.65
2023-02-11T00:50:23.754Z,29.50
2023-02-11T00:51:27.676Z,31.67
2023-02-11T00:52:30.137Z,29.85
2023-02-11T00:53:32.714Z,28.25
2023-02-11T00:54:34.544Z,26.73
2023-02-11T00:55:36.252Z,30.40
2023-02-11T00:56:38.122Z,29.67
2023-02-11T00:57:39.898Z,32.33
2023-02-11T00:58:41.599Z,28.73
2023-02-11T00:59:43.599Z,31.35
2023-02-11T01:00:46.730Z,29.63
2023-02-11T01:01:48.974Z,28.25
2023-02-11T01:02:51.371Z,28.08
2023-02-11T01:03:53.226Z,28.50
2023-02-11T01:04:58.561Z,34.42
2023-02-11T01:06:00.867Z,32.92
2023-02-11T01:07:02.572Z,32.33
2023-02-11T01:08:05.208Z,31.10
2023-02-11T01:09:07.124Z,28.17
2023-02-11T01:10:10.572Z,33.90
2023-02-11T01:11:15.226Z,29.48
2023-02-11T01:12:19.958Z,32.10
2023-02-11T01:13:22.352Z,29.92
2023-02-11T01:14:24.145Z,29.70
2023-02-11T01:15:26.460Z,29.42
2023-02-11T01:16:28.466Z,32.17
2023-02-11T01:17:30.312Z,35.72
2023-02-11T01:18:32.070Z,35.75
2023-02-11T01:19:33.874Z,36.92
2023-02-11T01:20:35.665Z,29.70
2023-02-11T01:21:37.365Z,28.30
2023-02-11T01:22:39.761Z,27.92
2023-02-11T01:23:41.633Z,31.98
2023-02-11T01:24:43.329Z,29.98
2023-02-11T01:25:45.153Z,29.80
2023-02-11T01:26:46.832Z,26.70
2023-02-11T01:27:48.564Z,29.00
2023-02-11T01:28:50.370Z,27.98
2023-02-11T01:29:52.117Z,39.97
2023-02-11T01:31:08.767Z,30.45
2023-02-11T01:32:11.070Z,27.92
2023-02-11T01:33:12.876Z,28.10
2023-02-11T01:34:15.540Z,26.60
2023-02-11T01:36:19.002Z,31.60
2023-02-11T01:37:20.749Z,27.45
2023-02-11T01:38:25.348Z,27.92
2023-02-11T01:39:28.581Z,29.60
2023-02-11T01:40:30.605Z,25.52
2023-02-11T01:41:32.460Z,29.13
2023-02-11T01:42:34.328Z,25.02
2023-02-11T01:43:38.714Z,34.22
2023-02-11T01:44:40.497Z,28.45
2023-02-11T01:45:46.276Z,41.22
2023-02-11T01:46:48.052Z,28.08
2023-02-11T01:47:49.848Z,31.52
2023-02-11T01:49:07.604Z,44.30
2023-02-11T01:50:09.396Z,32.00
2023-02-11T01:51:17.500Z,29.05
2023-02-11T01:52:26.584Z,27.90
2023-02-11T01:53:47.874Z,30.45
2023-02-11T01:55:30.420Z,31.15
2023-02-11T01:56:51.901Z,32.00
2023-02-11T01:57:57.032Z,31.08
2023-02-11T01:59:21.173Z,32.45
2023-02-11T02:00:42.717Z,31.55
2023-02-11T02:01:48.637Z,37.75
2023-02-11T02:03:13.532Z,33.83
2023-02-11T02:04:17.891Z,33.30
2023-02-11T02:05:39.537Z,35.08
2023-02-11T02:06:50.162Z,28.48
2023-02-11T02:08:13.824Z,34.42
2023-02-11T02:09:22.973Z,30.70
2023-02-11T02:10:26.381Z,28.98
2023-02-11T02:11:28.175Z,28.60
2023-02-11T02:12:30.194Z,22.55
2023-02-11T02:13:33.725Z,27.30
2023-02-11T02:14:38.936Z,27.60
2023-02-11T02:15:45.937Z,28.42
2023-02-11T02:16:47.755Z,24.00
2023-02-11T02:17:53.864Z,29.08
2023-02-11T02:19:33.191Z,35.45
2023-02-11T02:20:56.489Z,22.52
2023-02-11T02:22:43.802Z,23.17
2023-02-11T02:24:08.387Z,23.48
2023-02-11T02:25:25.038Z,22.77
2023-02-11T02:26:45.551Z,21.50
2023-02-11T02:27:53.208Z,22.27
2023-02-11T02:29:19.451Z,21.92
2023-02-11T02:30:33.148Z,22.10
2023-02-11T02:32:10.319Z,20.08
2023-02-11T02:33:22.479Z,17.58
2023-02-11T02:34:46.520Z,20.58
2023-02-11T02:35:56.048Z,19.60
2023-02-11T02:37:03.613Z,19.98
2023-02-11T02:38:17.244Z,20.23
2023-02-11T02:39:24.315Z,22.20
2023-02-11T02:40:31.505Z,22.00
2023-02-11T02:41:34.812Z,19.92
2023-02-11T02:42:36.870Z,19.20
2023-02-11T02:43:42.039Z,18.02
2023-02-11T02:44:49.498Z,18.42
2023-02-11T02:45:51.366Z,19.95
2023-02-11T02:46:53.216Z,21.88
2023-02-11T02:47:55.442Z,19.08
2023-02-11T02:48:57.678Z,22.38
2023-02-11T02:49:59.569Z,23.98
2023-02-11T02:51:38.960Z,22.92
2023-02-11T02:53:10.308Z,19.73
2023-02-11T02:54:14.996Z,16.55
2023-02-11T02:55:27.787Z,19.55
2023-02-11T02:56:51.668Z,16.98
2023-02-11T02:57:53.197Z,16.90
2023-02-11T02:59:28.807Z,15.48
2023-02-11T03:00:54.322Z,15.75
2023-02-11T03:02:21.120Z,19.67
2023-02-11T03:03:32.014Z,15.55
2023-02-11T03:05:04.203Z,21.33
2023-02-11T03:06:17.866Z,15.60
2023-02-11T03:07:39.858Z,21.20
2023-02-11T03:08:51.498Z,19.63
2023-02-11T03:10:09.582Z,16.65
2023-02-11T03:11:12.032Z,19.50
2023-02-11T03:12:13.918Z,17.30
2023-02-11T03:13:19.723Z,19.10
2023-02-11T03:14:22.396Z,20.33
2023-02-11T03:16:28.039Z,16.05
2023-02-11T03:17:31.419Z,19.08
2023-02-11T03:18:35.774Z,16.77
2023-02-11T03:19:39.561Z,15.50
2023-02-11T03:20:43.621Z,19.02
2023-02-11T03:21:47.046Z,17.15
2023-02-11T03:22:56.561Z,18.88
2023-02-11T03:24:01.091Z,16.25
2023-02-11T03:25:03.078Z,13.98
2023-02-11T03:26:31.593Z,16.50
2023-02-11T03:27:37.517Z,18.15
2023-02-11T03:28:44.382Z,17.75
2023-02-11T03:29:51.735Z,15.65
2023-02-11T03:31:04.615Z,15.38
2023-02-11T03:32:23.898Z,17.70
2023-02-11T03:33:35.880Z,18.38
2023-02-11T03:34:46.009Z,16.73
2023-02-11T03:35:54.048Z,16.30
2023-02-11T03:37:18.646Z,17.25
2023-02-11T03:38:23.819Z,18.33
2023-02-11T03:39:33.491Z,16.83
2023-02-11T03:40:39.857Z,16.50
2023-02-11T03:41:42.628Z,17.00
2023-02-11T03:42:50.046Z,18.20
2023-02-11T03:43:55.326Z,17.58
2023-02-11T03:45:01.651Z,15.95
2023-02-11T03:46:03.681Z,17.30
2023-02-11T03:47:08.451Z,23.27
2023-02-11T03:48:35.299Z,18.48
2023-02-11T03:49:38.574Z,16.60
2023-02-11T03:50:41.439Z,15.57
2023-02-11T03:52:45.561Z,19.02
2023-02-11T03:53:47.831Z,14.23
2023-02-11T03:54:51.656Z,19.00
2023-02-11T03:55:57.428Z,16.55
2023-02-11T03:57:00.910Z,17.65
2023-02-11T03:58:02.536Z,16.45
2023-02-11T03:59:04.407Z,15.77
2023-02-11T04:00:07.245Z,15.50
2023-02-11T04:01:13.153Z,16.45
2023-02-11T04:02:14.795Z,18.77
2023-02-11T04:03:16.610Z,18.52
2023-02-11T04:04:18.418Z,16.63
2023-02-11T04:05:20.104Z,16.98
2023-02-11T04:06:21.641Z,15.50
2023-02-11T04:07:23.537Z,17.92
2023-02-11T04:08:25.583Z,31.08
2023-02-11T04:09:27.303Z,24.08
2023-02-11T04:10:29.151Z,21.08
2023-02-11T04:11:30.740Z,18.38
2023-02-11T04:12:32.535Z,22.23
2023-02-11T04:13:34.347Z,16.77
2023-02-11T04:14:36.095Z,18.83
2023-02-11T04:15:38.253Z,19.70
2023-02-11T04:16:39.863Z,19.60
2023-02-11T04:17:41.671Z,22.13
2023-02-11T04:18:43.353Z,22.30
2023-02-11T04:19:44.943Z,19.63
2023-02-11T04:20:47.100Z,18.60
2023-02-11T04:21:48.641Z,20.40
2023-02-11T04:22:50.279Z,24.88
2023-02-11T04:23:51.930Z,18.73
2023-02-11T04:24:53.544Z,20.45
2023-02-11T04:25:55.166Z,21.13
2023-02-11T04:26:56.917Z,18.88
2023-02-11T04:27:58.863Z,21.13
2023-02-11T04:29:00.565Z,18.20
2023-02-11T04:30:02.208Z,22.30
2023-02-11T04:31:04.086Z,16.90
2023-02-11T04:32:05.816Z,22.35
2023-02-11T04:33:07.439Z,16.98
2023-02-11T04:34:09.068Z,29.75
2023-02-11T04:35:10.655Z,18.42
2023-02-11T04:36:12.930Z,19.77
2023-02-11T04:37:14.873Z,19.70
2023-02-11T04:38:16.762Z,19.70
2023-02-11T04:39:18.569Z,21.83
2023-02-11T04:40:20.300Z,16.35
2023-02-11T04:41:21.893Z,18.17
2023-02-11T04:42:23.945Z,22.95
2023-02-11T04:43:25.581Z,23.85
2023-02-11T04:44:27.554Z,24.23
2023-02-11T04:45:29.171Z,20.48
2023-02-11T04:46:30.858Z,19.55
2023-02-11T04:47:32.552Z,17.27
2023-02-11T04:48:35.297Z,18.95
2023-02-11T04:49:37.418Z,18.27
2023-02-11T04:50:39.193Z,20.48
2023-02-11T04:51:41.142Z,18.98
2023-02-11T04:52:42.809Z,19.60
2023-02-11T04:53:44.533Z,24.90
2023-02-11T04:54:46.242Z,18.95
2023-02-11T04:55:51.588Z,26.83
2023-02-11T04:56:53.341Z,25.05
2023-02-11T04:57:55.317Z,19.08
2023-02-11T04:58:56.968Z,16.60
2023-02-11T04:59:59.351Z,17.30
2023-02-11T05:01:09.054Z,20.25
2023-02-11T05:02:10.622Z,19.88
2023-02-11T05:03:13.059Z,19.08
2023-02-11T05:04:14.843Z,19.42
2023-02-11T05:05:16.979Z,19.95
2023-02-11T05:06:18.593Z,19.13
2023-02-11T05:07:20.304Z,17.02
2023-02-11T05:08:21.964Z,17.20
2023-02-11T05:09:23.652Z,16.85
2023-02-11T05:10:25.672Z,17.55
2023-02-11T05:11:27.296Z,20.73
2023-02-11T05:12:28.938Z,22.65
2023-02-11T05:13:30.726Z,17.77
2023-02-11T05:14:33.301Z,17.73
2023-02-11T05:15:35.042Z,16.52
2023-02-11T05:16:36.757Z,16.95
2023-02-11T05:17:38.443Z,16.63
2023-02-11T05:18:41.468Z,17.48
2023-02-11T05:19:43.443Z,17.88
2023-02-11T05:20:45.374Z,16.98
2023-02-11T05:22:01.355Z,19.48
2023-02-11T05:23:04.083Z,18.83
2023-02-11T05:24:06.130Z,16.92
2023-02-11T05:25:08.267Z,19.35
2023-02-11T05:26:10.886Z,17.85
2023-02-11T05:28:14.116Z,18.88
2023-02-11T05:29:15.762Z,17.33
2023-02-11T05:30:17.502Z,15.75
2023-02-11T05:31:19.307Z,19.92
2023-02-11T05:32:21.104Z,18.33
2023-02-11T05:33:22.938Z,16.00
2023-02-11T05:34:24.726Z,18.50
2023-02-11T05:35:26.882Z,19.10
2023-02-11T05:36:29.821Z,19.75
2023-02-11T05:37:33.166Z,23.15
2023-02-11T05:38:35.238Z,23.67
2023-02-11T05:39:36.973Z,28.40
2023-02-11T05:40:38.835Z,23.80
2023-02-11T05:41:40.567Z,22.55
2023-02-11T05:42:42.236Z,22.88
2023-02-11T05:43:43.997Z,22.48
2023-02-11T05:44:45.669Z,22.42
2023-02-11T05:45:47.419Z,24.30
2023-02-11T05:46:49.434Z,19.50
2023-02-11T05:47:51.450Z,17.17
2023-02-11T05:48:53.164Z,17.25
2023-02-11T05:49:54.845Z,17.52
2023-02-11T05:50:56.546Z,18.35
2023-02-11T05:51:58.407Z,19.92
2023-02-11T05:53:00.103Z,19.70
2023-02-11T05:54:02.196Z,17.30
2023-02-11T05:55:04.275Z,18.60
2023-02-11T05:56:06.476Z,15.10
2023-02-11T05:57:08.277Z,15.68
2023-02-11T05:58:10.093Z,12.77
2023-02-11T05:59:13.903Z,14.20
2023-02-11T06:00:16.073Z,15.23
2023-02-11T06:01:17.893Z,12.60
2023-02-11T06:02:19.620Z,13.95
2023-02-11T06:03:21.339Z,15.07
2023-02-11T06:04:23.055Z,12.88
2023-02-11T06:05:24.753Z,16.08
2023-02-11T06:06:26.668Z,15.65
2023-02-11T06:07:28.672Z,13.48
2023-02-11T06:08:30.310Z,15.07
2023-02-11T06:09:31.944Z,13.95
2023-02-11T06:10:33.544Z,14.35
2023-02-11T06:11:35.185Z,12.10
2023-02-11T06:12:37.872Z,14.23
2023-02-11T06:14:41.217Z,10.32
2023-02-11T06:15:42.907Z,12.90
2023-02-11T06:16:45.473Z,12.93
2023-02-11T06:17:47.521Z,12.95
2023-02-11T06:18:49.240Z,12.70
2023-02-11T06:19:51.075Z,12.70
2023-02-11T06:20:52.765Z,14.90
2023-02-11T06:21:56.102Z,13.05
2023-02-11T06:22:57.861Z,12.90
2023-02-11T06:23:59.504Z,13.20
2023-02-11T06:25:02.310Z,14.65
2023-02-11T06:26:05.921Z,14.00
2023-02-11T06:27:07.608Z,13.25
2023-02-11T06:28:10.735Z,11.85
2023-02-11T06:29:13.043Z,15.50
2023-02-11T06:30:16.205Z,13.85
2023-02-11T06:31:18.315Z,13.18
2023-02-11T06:32:39.597Z,14.20
2023-02-11T06:33:42.224Z,12.85
2023-02-11T06:34:43.861Z,13.95
2023-02-11T06:35:45.556Z,14.60
2023-02-11T06:36:47.631Z,12.10
2023-02-11T06:37:49.732Z,16.83
2023-02-11T06:38:53.261Z,14.73
2023-02-11T06:39:54.887Z,17.25
2023-02-11T06:40:56.605Z,21.60
2023-02-11T06:41:58.281Z,20.83
2023-02-11T06:43:00.309Z,18.42
2023-02-11T06:44:01.973Z,18.98
2023-02-11T06:45:06.029Z,19.85
2023-02-11T06:46:08.412Z,18.67
2023-02-11T06:47:10.218Z,18.95
2023-02-11T06:48:12.004Z,17.92
2023-02-11T06:49:13.718Z,16.15
2023-02-11T06:50:15.614Z,16.27
2023-02-11T06:51:17.878Z,13.70
2023-02-11T06:52:19.495Z,13.48
2023-02-11T06:53:21.174Z,14.93
2023-02-11T06:54:22.914Z,11.73
2023-02-11T06:55:24.604Z,13.70
2023-02-11T06:56:27.479Z,13.55
2023-02-11T06:57:30.576Z,15.00
2023-02-11T06:58:32.396Z,13.10
2023-02-11T06:59:34.031Z,13.98
2023-02-11T07:00:36.748Z,17.15
2023-02-11T07:01:38.390Z,14.18
2023-02-11T07:02:40.057Z,12.40
2023-02-11T07:03:44.469Z,15.48
2023-02-11T07:04:46.351Z,14.93
2023-02-11T07:05:48.017Z,14.55
2023-02-11T07:06:49.943Z,12.77
2023-02-11T07:07:51.682Z,14.15
2023-02-11T07:08:54.939Z,14.98
2023-02-11T07:09:56.569Z,14.70
2023-02-11T07:10:58.250Z,11.40
2023-02-11T07:12:00.016Z,13.70
2023-02-11T07:13:02.064Z,12.98
2023-02-11T07:14:08.418Z,13.43
2023-02-11T07:15:10.229Z,12.98
2023-02-11T07:16:14.850Z,12.00
2023-02-11T07:17:16.685Z,13.68
2023-02-11T07:18:18.479Z,11.48
2023-02-11T07:19:20.248Z,10.30
2023-02-11T07:20:21.862Z,11.55
2023-02-11T07:21:24.428Z,10.80
2023-02-11T07:22:26.051Z,11.82
2023-02-11T07:23:28.660Z,9.93
2023-02-11T07:25:31.952Z,13.52
2023-02-11T07:26:33.701Z,11.02
2023-02-11T07:27:35.404Z,12.65
2023-02-11T07:28:38.665Z,11.13
2023-02-11T07:29:42.152Z,10.27
2023-02-11T07:30:43.889Z,10.90
2023-02-11T07:31:45.727Z,11.75
2023-02-11T07:32:48.116Z,11.05
2023-02-11T07:33:50.293Z,11.77
2023-02-11T07:34:52.135Z,11.98
2023-02-11T07:35:54.001Z,9.32
2023-02-11T07:36:55.780Z,11.00
2023-02-11T07:37:57.394Z,10.18
2023-02-11T07:39:00.104Z,11.73
2023-02-11T07:41:09.336Z,10.98
2023-02-11T07:42:11.143Z,11.23
2023-02-11T07:43:14.014Z,11.55
2023-02-11T07:44:16.426Z,11.48
2023-02-11T07:45:18.461Z,9.95
2023-02-11T07:46:22.902Z,10.15
2023-02-11T07:47:24.683Z,10.25
2023-02-11T07:48:26.364Z,11.07
2023-02-11T07:49:29.000Z,9.48
2023-02-11T07:50:30.689Z,11.18
2023-02-11T07:51:32.457Z,8.07
2023-02-11T07:52:34.152Z,9.63
2023-02-11T07:53:36.191Z,9.65
2023-02-11T07:54:37.981Z,8.07
2023-02-11T07:55:39.636Z,8.73
2023-02-11T07:56:41.362Z,11.93
2023-02-11T07:57:43.129Z,10.40
2023-02-11T07:58:45.449Z,8.43
2023-02-11T07:59:47.340Z,11.82
2023-02-11T08:00:49.101Z,10.07
2023-02-11T08:01:51.566Z,12.15
2023-02-11T08:02:53.318Z,10.68
2023-02-11T08:03:57.600Z,8.98
2023-02-11T08:04:59.215Z,8.93
2023-02-11T08:06:08.762Z,11.25
2023-02-11T08:07:10.420Z,9.40
2023-02-11T08:08:12.081Z,9.57
2023-02-11T08:09:16.677Z,9.65
2023-02-11T08:10:18.337Z,8.02
2023-02-11T08:11:24.715Z,8.98
2023-02-11T08:12:26.310Z,8.32
2023-02-11T08:13:28.186Z,9.70
2023-02-11T08:14:29.775Z,12.38
2023-02-11T08:15:31.426Z,10.07
2023-02-11T08:16:34.968Z,9.10
2023-02-11T08:17:37.062Z,11.43
2023-02-11T08:18:38.699Z,8.48
2023-02-11T08:19:40.340Z,9.55
2023-02-11T08:20:42.189Z,10.52
2023-02-11T08:21:44.518Z,9.63
2023-02-11T08:22:46.166Z,11.05
2023-02-11T08:23:47.839Z,9.18
2023-02-11T08:24:52.244Z,9.77
2023-02-11T08:25:54.211Z,10.20
2023-02-11T08:26:55.864Z,9.27
2023-02-11T08:27:58.194Z,9.68
2023-02-11T08:28:59.837Z,8.00
2023-02-11T08:30:01.923Z,9.98
2023-02-11T08:31:12.504Z,11.65
2023-02-11T08:32:14.229Z,9.50
2023-02-11T08:33:16.037Z,10.35
2023-02-11T08:34:20.652Z,9.75
2023-02-11T08:35:22.377Z,10.50
2023-02-11T08:36:29.112Z,11.27
2023-02-11T08:37:33.008Z,9.40
2023-02-11T08:38:34.758Z,11.95
2023-02-11T08:39:36.345Z,10.18
2023-02-11T08:40:38.045Z,11.20
2023-02-11T08:41:39.748Z,11.38
2023-02-11T08:42:41.434Z,11.65
2023-02-11T08:43:44.176Z,9.30
2023-02-11T08:44:45.844Z,11.80
2023-02-11T08:45:47.606Z,15.02
2023-02-11T08:46:49.964Z,11.05
2023-02-11T08:47:51.641Z,13.07
2023-02-11T08:48:53.577Z,11.32
2023-02-11T08:49:55.229Z,9.55
2023-02-11T08:50:57.294Z,9.73
2023-02-11T08:52:03.742Z,11.32
2023-02-11T08:53:05.389Z,11.52
2023-02-11T08:54:09.573Z,9.55
2023-02-11T08:55:11.574Z,10.88
2023-02-11T08:56:14.155Z,8.18
2023-02-11T08:58:19.206Z,8.52
2023-02-11T08:59:20.937Z,9.55
2023-02-11T09:00:23.218Z,9.88
2023-02-11T09:01:27.262Z,11.05
2023-02-11T09:02:29.948Z,11.13
2023-02-11T09:03:31.642Z,11.48
2023-02-11T09:04:33.344Z,10.70
2023-02-11T09:05:34.997Z,12.85
2023-02-11T09:06:36.782Z,12.95
2023-02-11T09:07:38.449Z,11.50
2023-02-11T09:08:45.329Z,11.68
2023-02-11T09:09:48.149Z,13.35
2023-02-11T09:10:50.164Z,12.95
2023-02-11T09:11:51.964Z,11.93
2023-02-11T09:12:53.578Z,12.82
2023-02-11T09:13:55.244Z,11.77
2023-02-11T09:14:56.883Z,11.88
2023-02-11T09:15:59.743Z,12.50
2023-02-11T09:17:01.864Z,12.40
2023-02-11T09:18:04.337Z,12.70
2023-02-11T09:19:06.022Z,13.43
2023-02-11T09:20:10.627Z,13.85
2023-02-11T09:21:13.184Z,13.02
2023-02-11T09:22:14.869Z,15.43
2023-02-11T09:23:18.590Z,16.73
2023-02-11T09:24:20.513Z,16.20
2023-02-11T09:25:22.146Z,16.02
2023-02-11T09:26:31.969Z,13.20
2023-02-11T09:27:33.614Z,14.82
2023-02-11T09:28:35.637Z,15.30
2023-02-11T09:29:37.376Z,13.30
2023-02-11T09:30:39.347Z,16.50
2023-02-11T09:31:41.321Z,14.68
2023-02-11T09:32:42.978Z,14.23
2023-02-11T09:33:49.299Z,13.90
2023-02-11T09:34:50.951Z,16.02
2023-02-11T09:35:52.562Z,15.38
2023-02-11T09:36:54.288Z,17.48
2023-02-11T09:37:56.043Z,15.43
2023-02-11T09:38:59.800Z,15.10
2023-02-11T09:40:01.412Z,13.63
2023-02-11T09:41:07.575Z,14.05
2023-02-11T09:42:39.329Z,16.48
2023-02-11T09:43:46.611Z,16.70
2023-02-11T09:44:48.503Z,14.48
2023-02-11T09:45:50.956Z,14.30
2023-02-11T09:47:05.415Z,14.35
2023-02-11T09:48:13.657Z,16.30
2023-02-11T09:49:19.664Z,17.20
2023-02-11T09:50:34.190Z,16.60
2023-02-11T09:51:48.531Z,14.75
2023-02-11T09:52:55.707Z,15.18
2023-02-11T09:54:03.814Z,15.73
2023-02-11T09:55:22.907Z,15.48
2023-02-11T09:56:25.069Z,17.27
2023-02-11T09:57:31.164Z,18.13
2023-02-11T09:58:35.676Z,16.45
2023-02-11T09:59:37.356Z,16.45
2023-02-11T10:00:49.444Z,15.43
2023-02-11T10:01:59.292Z,14.73
2023-02-11T10:03:09.928Z,17.50
2023-02-11T10:04:42.993Z,16.10
2023-02-11T10:05:51.404Z,14.00
2023-02-11T10:06:58.068Z,17.38
2023-02-11T10:08:10.009Z,16.95
2023-02-11T10:09:32.025Z,17.58
2023-02-11T10:10:53.169Z,20.08
2023-02-11T10:12:16.827Z,14.07
2023-02-11T10:13:24.362Z,20.20
2023-02-11T10:14:56.275Z,16.35
2023-02-11T10:15:57.959Z,16.48
2023-02-11T10:17:17.277Z,16.40
2023-02-11T10:18:59.603Z,18.33
2023-02-11T10:20:07.413Z,19.30
2023-02-11T10:21:30.319Z,17.70
2023-02-11T10:22:36.281Z,20.67
2023-02-11T10:23:40.127Z,16.17
2023-02-11T10:24:42.636Z,19.52
2023-02-11T10:25:47.067Z,19.88
2023-02-11T10:26:49.251Z,18.88
2023-02-11T10:27:51.965Z,17.08
2023-02-11T10:28:55.577Z,17.60
2023-02-11T10:30:20.525Z,17.17
2023-02-11T10:31:29.149Z,20.65
2023-02-11T10:32:42.848Z,19.08
2023-02-11T10:34:01.518Z,20.27
2023-02-11T10:35:09.281Z,23.85
2023-02-11T10:36:15.301Z,19.55
2023-02-11T10:37:17.046Z,18.67
2023-02-11T10:38:18.748Z,19.23
2023-02-11T10:39:25.983Z,21.38
2023-02-11T10:40:30.423Z,19.88
2023-02-11T10:41:38.108Z,19.98
2023-02-11T10:42:45.734Z,18.00
2023-02-11T10:43:47.312Z,19.83
2023-02-11T10:45:00.631Z,20.60
2023-02-11T10:46:03.280Z,21.45
2023-02-11T10:47:30.005Z,24.00
2023-02-11T10:48:51.769Z,16.77
2023-02-11T10:49:53.465Z,19.67
2023-02-11T10:51:14.652Z,19.77
2023-02-11T10:52:27.880Z,21.95
2023-02-11T10:53:29.465Z,21.35
2023-02-11T10:54:31.111Z,21.80
2023-02-11T10:55:33.046Z,20.75
2023-02-11T10:56:36.539Z,19.05
2023-02-11T10:57:44.594Z,16.20
2023-02-11T10:58:55.105Z,19.27
2023-02-11T11:00:05.738Z,18.63
2023-02-11T11:01:23.215Z,19.30
2023-02-11T11:02:32.247Z,20.10
2023-02-11T11:03:39.094Z,18.52
2023-02-11T11:04:42.954Z,19.95
2023-02-11T11:05:50.004Z,18.13
2023-02-11T11:06:51.635Z,18.92
2023-02-11T11:07:55.424Z,18.30
2023-02-11T11:08:57.935Z,18.90
2023-02-11T11:10:08.576Z,21.27
2023-02-11T11:11:13.497Z,18.75
2023-02-11T11:12:30.302Z,18.70
2023-02-11T11:13:34.256Z,18.05
2023-02-11T11:14:35.855Z,18.83
2023-02-11T11:15:37.480Z,22.27
2023-02-11T11:16:39.456Z,20.83
2023-02-11T11:17:41.040Z,19.60
2023-02-11T11:18:51.238Z,19.10
2023-02-11T11:19:53.153Z,17.98
2023-02-11T11:20:58.634Z,19.80
2023-02-11T11:22:01.126Z,18.33
2023-02-11T11:23:09.019Z,18.10
2023-02-11T11:25:27.469Z,21.77
2023-02-11T11:26:43.972Z,18.02
2023-02-11T11:27:52.065Z,18.52
2023-02-11T11:29:00.733Z,20.38
2023-02-11T11:30:03.547Z,22.73
2023-02-11T11:32:21.372Z,17.67
2023-02-11T11:33:26.462Z,18.25
2023-02-11T11:34:39.312Z,18.63
2023-02-11T11:35:41.047Z,20.23
2023-02-11T11:36:43.086Z,19.98
2023-02-11T11:37:45.805Z,17.27
2023-02-11T11:38:54.720Z,21.55
2023-02-11T11:40:00.411Z,21.00
2023-02-11T11:41:23.854Z,17.60
2023-02-11T11:42:29.134Z,20.25
2023-02-11T11:43:30.926Z,21.40
2023-02-11T11:44:36.932Z,18.95
2023-02-11T11:45:39.248Z,19.98
2023-02-11T11:46:44.318Z,19.75
2023-02-11T11:47:53.178Z,22.95
2023-02-11T11:49:00.516Z,19.50
2023-02-11T11:50:22.977Z,21.83
2023-02-11T11:51:25.345Z,19.10
2023-02-11T11:52:29.517Z,20.35
2023-02-11T11:53:31.072Z,21.42
2023-02-11T11:54:34.086Z,17.80
2023-02-11T11:55:46.602Z,22.02
2023-02-11T11:56:59.031Z,19.75
2023-02-11T11:58:01.123Z,24.75
2023-02-11T11:59:11.241Z,22.83
2023-02-11T12:00:48.970Z,21.73
2023-02-11T12:01:59.912Z,20.25
2023-02-11T12:03:21.273Z,20.85
2023-02-11T12:04:29.986Z,18.40
2023-02-11T12:06:54.758Z,19.90
2023-02-11T12:08:14.761Z,19.17
2023-02-11T12:09:29.821Z,19.67
2023-02-11T12:10:57.348Z,22.20
2023-02-11T12:12:33.356Z,20.92
2023-02-11T12:13:43.260Z,18.92
2023-02-11T12:14:54.015Z,18.88
2023-02-11T12:16:04.703Z,21.38
2023-02-11T12:17:52.250Z,19.63
2023-02-11T12:19:12.601Z,19.65
2023-02-11T12:20:29.625Z,19.42
2023-02-11T12:21:49.087Z,18.63
2023-02-11T12:22:54.337Z,19.00
2023-02-11T12:24:24.081Z,18.20
2023-02-11T12:25:52.320Z,22.42
2023-02-11T12:26:58.256Z,16.73
2023-02-11T12:28:10.928Z,15.77
2023-02-11T12:29:33.445Z,17.15
2023-02-11T12:30:43.981Z,15.23
2023-02-11T12:32:05.032Z,13.95
2023-02-11T12:33:25.453Z,17.00
2023-02-11T12:35:08.531Z,15.27
2023-02-11T12:36:12.977Z,17.75
2023-02-11T12:37:47.464Z,16.20
2023-02-11T12:39:11.882Z,16.40
2023-02-11T12:40:16.691Z,16.02
2023-02-11T12:42:08.070Z,15.35
2023-02-11T12:43:18.431Z,16.35
2023-02-11T12:44:29.657Z,15.98
2023-02-11T12:45:55.777Z,16.45
2023-02-11T12:47:04.797Z,16.13
2023-02-11T12:48:18.372Z,14.20
2023-02-11T12:49:38.725Z,15.20
2023-02-11T12:50:46.369Z,18.77
2023-02-11T12:52:08.280Z,17.05
2023-02-11T12:53:31.831Z,14.48
2023-02-11T12:54:39.009Z,14.02
2023-02-11T12:55:45.300Z,15.68
2023-02-11T12:57:11.207Z,16.48
2023-02-11T12:58:17.172Z,16.25
2023-02-11T12:59:43.511Z,18.90
2023-02-11T13:00:55.584Z,19.75
2023-02-11T13:01:58.060Z,16.40
2023-02-11T13:04:19.802Z,14.52
2023-02-11T13:05:28.386Z,15.70
2023-02-11T13:06:35.681Z,19.25
2023-02-11T13:07:41.960Z,17.27
2023-02-11T13:08:52.468Z,16.90
2023-02-11T13:10:05.539Z,15.35
2023-02-11T13:11:14.278Z,14.48
2023-02-11T13:12:35.534Z,15.38
2023-02-11T13:13:47.241Z,14.55
2023-02-11T13:14:50.306Z,15.35
2023-02-11T13:15:56.580Z,16.73
2023-02-11T13:16:58.813Z,14.77
2023-02-11T13:18:01.097Z,14.25
2023-02-11T13:19:26.694Z,15.98
2023-02-11T13:20:41.601Z,16.23
2023-02-11T13:21:53.164Z,14.98
2023-02-11T13:23:10.327Z,15.77
2023-02-11T13:24:30.679Z,15.00
2023-02-11T13:25:39.093Z,15.95
2023-02-11T13:26:42.999Z,16.52
2023-02-11T13:27:58.927Z,14.57
2023-02-11T13:29:30.007Z,15.23
2023-02-11T13:30:34.604Z,14.77
2023-02-11T13:31:36.686Z,14.00
2023-02-11T13:33:01.651Z,16.15
2023-02-11T13:34:03.967Z,12.27
2023-02-11T13:35:29.735Z,14.95
2023-02-11T13:36:33.299Z,15.82
2023-02-11T13:37:37.746Z,12.00
2023-02-11T13:38:39.498Z,13.60
2023-02-11T13:39:41.131Z,14.02
2023-02-11T13:40:43.265Z,15.35
2023-02-11T13:41:51.500Z,15.38
2023-02-11T13:42:56.636Z,16.27
2023-02-11T13:44:10.218Z,13.13
2023-02-11T13:45:29.324Z,12.60
2023-02-11T13:47:01.292Z,13.65
2023-02-11T13:48:05.829Z,16.15
2023-02-11T13:49:19.229Z,14.60
2023-02-11T13:50:23.829Z,14.60
2023-02-11T13:51:43.260Z,16.45
2023-02-11T13:52:45.284Z,17.25
2023-02-11T13:53:56.961Z,12.25
2023-02-11T13:55:06.228Z,15.13
2023-02-11T13:56:13.137Z,12.38
2023-02-11T13:57:20.371Z,13.38
2023-02-11T13:58:28.003Z,14.50
2023-02-11T13:59:32.984Z,13.02
2023-02-11T14:00:34.651Z,14.00
2023-02-11T14:01:39.118Z,14.00
2023-02-11T14:02:59.206Z,12.57
2023-02-11T14:04:41.333Z,15.18
2023-02-11T14:06:27.520Z,13.23
2023-02-11T14:07:52.515Z,14.95
2023-02-11T14:09:09.425Z,13.32
2023-02-11T14:10:36.210Z,12.98
2023-02-11T14:11:42.760Z,12.88
2023-02-11T14:13:22.455Z,14.20
2023-02-11T14:14:25.153Z,15.85
2023-02-11T14:15:27.522Z,13.90
2023-02-11T14:16:38.076Z,14.40
2023-02-11T14:17:40.623Z,13.80
2023-02-11T14:18:46.118Z,13.60
2023-02-11T14:19:50.097Z,13.13
2023-02-11T14:20:53.839Z,14.88
2023-02-11T14:22:18.464Z,15.05
2023-02-11T14:23:24.131Z,16.70
2023-02-11T14:24:25.672Z,15.52
2023-02-11T14:25:27.406Z,18.27
2023-02-11T14:26:31.630Z,20.17
2023-02-11T14:27:42.463Z,23.33
2023-02-11T14:28:46.973Z,18.05
2023-02-11T14:30:21.241Z,21.90
2023-02-11T14:31:44.646Z,25.45